KGNV

Gainesville Regional Airport

Gainesville, Florida, USA
METAR KGNV 140353Z AUTO 01009KT 10SM BKN034 OVC041 20/17 A3014 RMK AO2 SLP204 T02000167
Observed Flight Rules
Nov-14 @ 03:53 UTC (57 minutes ago) Visual Flight Rules
Wind Visibility Clouds
10° at 9 knots 10 miles
  • Broken at 3,400' AGL
  • Overcast at 4,100' AGL
Temperatures Readings
Current 20°C / 68°F
Dewpoint 17°C / 63°F
Humidity 83%
Altimeter 30.14" Hg
Pressure 1020.4 hPa
Elevation 45
METAR KGNV 140353Z AUTO 01009KT 10SM BKN034 OVC041 20/17 A3014 RMK AO2 SLP204 T02000167
Observed Flight Rules
Nov-14 @ 03:53 UTC
(57 minutes ago)
VFR
Wind Visibility
10° at 9 knots 10 miles
Clouds
  • Broken at 3,400' AGL
  • Overcast at 4,100' AGL
Temperature Dewpoint
20°C / 68°F 17°C / 63°F
Humidity Altimeter Pressure
83% 30.14" Hg 1020.4 hPa